• Join FlightAware (Why Join?)
  • Login
  • US Flag 
04:50AM EDT


 

Airport Tracker/Info


-or-


 

Live Flight TrackerFlight Track Log ✈ SWA315 ✈ 15-Apr-2013 ✈ KDEN - KIND

Flight Track Log - Related Links

Times and Time Zones

All times are in EDT time to prevent confusion due to time zone crossing. See the SWA315 flight status page for this flight to view local times or setup timezone preferences in your user account.

Time Position Orientation Groundspeed Altitude Reporting Facility
EDT Latitude Longitude Course Direction KTS MPH feet Rate Location/Type
12:56PM 39.9167 -104.6667 56° Northeast 185 213 7,000  Level Denver TRACON
12:56PM 39.9367 -104.6281 56° Northeast 205 236 8,000 1,980 Climbing Denver Center
12:57PM 39.9500 -104.5833 69° East 265 305 9,000 1,320 Climbing Denver TRACON
12:58PM 39.9500 -104.4667 90° East 305 351 10,000 1,080 Climbing Denver TRACON
12:59PM 39.9403 -104.2953 94° East 329 379 12,000 1,080 Climbing Denver Center
01:00PM 39.9292 -104.1864 98° East 357 411 12,900 1,980 Climbing Denver Center
01:02PM 39.9117 -104.0064 97° East 413 475 16,100 2,880 Climbing Denver Center
01:03PM 39.8939 -103.8364 98° East 441 507 18,900 2,520 Climbing Denver Center
01:04PM 39.8903 -103.6783 92° East 436 502 21,400 2,220 Climbing Denver Center
01:05PM 39.8997 -103.5019 86° East 479 551 23,500 1,740 Climbing Denver Center
01:06PM 39.9097 -103.3181 86° East 505 581 25,100 1,620 Climbing Denver Center
01:07PM 39.9200 -103.1244 86° East 527 606 26,900 1,740 Climbing Denver Center
01:08PM 39.9306 -102.9286 86° East 537 618 28,800 1,980 Climbing Denver Center
01:09PM 39.9411 -102.6989 86° East 539 620 31,000 1,860 Climbing Denver Center
01:10PM 39.9511 -102.5047 86° East 544 626 32,700 1,680 Climbing Denver Center
01:11PM 39.9592 -102.3172 87° East 543 625 34,500 1,560 Climbing Denver Center
01:12PM 39.9697 -102.1025 86° East 534 615 36,000 1,200 Climbing Denver Center
01:13PM 39.9769 -101.9164 87° East 537 618 37,000 480 Climbing Denver Center
01:14PM 39.9831 -101.7628 87° East 535 616 37,000  Level Denver Center
01:15PM 39.9925 -101.5181 87° East 534 615 37,000  Level Denver Center
01:16PM 40.0008 -101.3025 87° East 534 615 37,000 120 Level Denver Center
01:17PM 40.0078 -101.1150 87° East 541 623 37,300 960 Climbing Denver Center
01:18PM 40.0153 -100.9067 87° East 519 597 39,000 780 Climbing Denver Center
01:19PM 40.0206 -100.7258 88° East 522 601 39,000  Level Denver Center
01:20PM 40.0272 -100.5147 88° East 525 604 39,000  Level Denver Center
01:21PM 40.0317 -100.3331 88° East 526 605 39,000  Level Denver Center
01:22PM 40.0364 -100.1556 88° East 530 610 39,000  Level Denver Center
01:23PM 40.0417 -99.9350 88° East 532 612 39,000  Level Denver Center
01:24PM 40.0469 -99.7311 88° East 536 617 39,000  Level Denver Center
01:25PM 40.0506 -99.5389 89° East 532 612 39,000  Level Denver Center
01:26PM 40.0550 -99.3467 88° East 532 612 39,000  Level Denver Center
01:27PM 40.0586 -99.1533 89° East 534 615 39,000  Level Denver Center
01:28PM 40.0622 -98.9606 89° East 533 613 39,000  Level Denver Center
01:29PM 40.0661 -98.7292 89° East 532 612 39,000  Level Denver Center
01:30PM 40.0669 -98.5356 90° East 535 616 39,000  Level Denver Center
01:32PM 40.0703 -98.3050 89° East 533 613 39,000  Level Minneapolis Center
01:33PM 40.0728 -98.1125 89° East 533 613 39,000  Level Minneapolis Center
01:34PM 40.0733 -97.9203 90° East 532 612 39,000  Level Minneapolis Center
01:35PM 40.0742 -97.7292 90° East 529 609 39,000  Level Minneapolis Center
01:36PM 40.0750 -97.5358 90° East 532 612 39,000  Level Minneapolis Center
01:37PM 40.0767 -97.3142 89° East 534 615 39,000  Level Minneapolis Center
01:38PM 40.0769 -97.1214 90° East 534 615 39,000  Level Minneapolis Center
01:39PM 40.0764 -96.9289 90° East 532 612 39,000  Level Minneapolis Center
01:40PM 40.0761 -96.7350 90° East 535 616 39,000  Level Minneapolis Center
01:41PM 40.0758 -96.5431 90° East 532 612 39,000  Level Minneapolis Center
01:42PM 40.0744 -96.3489 90° East 536 617 39,000  Level Minneapolis Center
01:43PM 40.0728 -96.1169 90° East 535 616 39,000  Level Minneapolis Center
01:44PM 40.0711 -95.9239 91° East 534 615 39,000  Level Minneapolis Center
01:45PM 40.0689 -95.7306 91° East 535 616 39,000  Level Minneapolis Center
01:46PM 40.0667 -95.5383 91° East 534 615 39,000  Level Minneapolis Center
01:47PM 40.0636 -95.3411 91° East 539 620 39,000  Level Minneapolis Center
01:48PM 40.0611 -95.1467 91° East 539 620 39,000  Level Minneapolis Center
01:49PM 40.0583 -94.9533 91° East 536 617 39,000  Level Minneapolis Center
01:50PM 40.0525 -94.7278 92° East 537 618 39,000  Level Minneapolis Center
01:51PM 40.0489 -94.5339 91° East 538 619 39,000  Level Minneapolis Center
01:52PM 40.0458 -94.3397 91° East 540 621 39,000  Level Minneapolis Center
01:53PM 40.0369 -94.1017 93° East 545 627 39,000  Level Kansas City Center
01:54PM 40.0314 -93.9075 92° East 551 634 39,000  Level Kansas City Center
01:55PM 40.0253 -93.7119 92° East 548 631 39,000  Level Kansas City Center
01:56PM 40.0189 -93.5169 92° East 543 625 39,000  Level Kansas City Center
01:57PM 40.0153 -93.3264 91° East 536 617 39,000  Level Kansas City Center
01:58PM 40.0067 -93.0939 93° East 541 623 39,000  Level Kansas City Center
01:59PM 40.0006 -92.9006 92° East 542 624 39,000  Level Kansas City Center
02:01PM 39.9931 -92.7103 93° East 537 618 39,000  Level Kansas City Center
02:02PM 39.9875 -92.5183 92° East 541 623 39,000  Level Kansas City Center
02:03PM 39.9775 -92.2908 93° East 536 617 39,000  Level Kansas City Center
02:04PM 39.9700 -92.1006 93° East 534 615 39,000  Level Kansas City Center
02:05PM 39.9606 -91.9103 94° East 535 616 39,000  Level Kansas City Center
02:06PM 39.9528 -91.7189 93° East 533 613 39,000  Level Kansas City Center
02:07PM 39.9439 -91.5278 93° East 535 616 39,000  Level Kansas City Center
02:08PM 39.9317 -91.2983 94° East 535 616 39,000  Level Kansas City Center
02:09PM 39.9211 -91.1064 94° East 536 617 39,000  Level Kansas City Center
02:10PM 39.9125 -90.9239 93° East 535 616 39,000 -480 Level Kansas City Center
02:11PM 39.9011 -90.7322 94° East 534 615 38,100 -1,020 Descending Kansas City Center
02:12PM 39.8889 -90.5061 94° East 528 608 37,000 -1,020 Descending Kansas City Center
02:13PM 39.8792 -90.3172 94° East 526 605 36,100 -960 Descending Kansas City Center
02:14PM 39.8678 -90.1269 94° East 528 608 35,100 -540 Descending Kansas City Center
02:15PM 39.8550 -89.9400 95° East 526 605 35,000 -60 Descending Kansas City Center
02:16PM 39.8442 -89.7556 94° East 519 597 35,000  Level Kansas City Center
02:17PM 39.8389 -89.5356 92° East 511 588 35,000 -180 Level Kansas City Center
02:18PM 39.8256 -89.3542 95° East 511 588 34,700 -660 Descending Kansas City Center
02:19PM 39.8028 -89.1717 99° East 512 589 33,700 -960 Descending Kansas City Center
02:20PM 39.7742 -88.9900 102° East 515 593 32,800 -1,080 Descending Kansas City Center
02:21PM 39.7464 -88.8092 101° East 514 592 31,500 -1,740 Descending Kansas City Center
02:22PM 39.7208 -88.6308 100° East 508 585 29,300 -2,340 Descending Kansas City Center
02:23PM 39.6908 -88.4253 101° East 487 560 26,700 -2,340 Descending Kansas City Center
02:24PM 39.6642 -88.2614 102° East 472 543 24,500 -1,320 Descending Kansas City Center
02:25PM 39.6500 -88.1061 97° East 449 517 24,000 -360 Descending Kansas City Center
02:26PM 39.6603 -88.0075 82° East 459 528 24,000 -480 Level Indianapolis Center
02:27PM 39.6761 -87.8433 83° East 456 525 23,300 -1,440 Descending Indianapolis Center
02:28PM 39.6919 -87.6806 83° East 455 524 21,100 -2,100 Descending Indianapolis Center
02:29PM 39.7086 -87.5208 82° East 452 520 19,100 -2,220 Descending Indianapolis Center
02:30PM 39.7250 -87.3386 83° East 441 507 16,600 -2,280 Descending Indianapolis Center
02:31PM 39.7394 -87.1928 83° East 428 493 14,500 -2,040 Descending Indianapolis Center
02:32PM 39.7519 -87.0506 83° East 415 478 12,500 -1,260 Descending Indianapolis Center
02:33PM 39.7653 -86.9128 83° East 403 464 12,000 -600 Descending Indianapolis Center
02:34PM 39.7731 -86.7786 86° East 390 449 11,300 -720 Descending Indianapolis Center
02:35PM 39.7672 -86.6514 93° East 367 422 10,600 -1,080 Descending Indianapolis Center
02:36PM 39.7767 -86.5344 84° East 350 403 9,100 -1,380 Descending Indianapolis Center
02:37PM 39.7972 -86.4197 77° East 336 387 7,800 -1,440 Descending Indianapolis Center
02:38PM 39.8167 -86.3333 74° East 297 342 6,600 -1,740 Descending Indianapolis TRACON
02:39PM 39.8667 -86.2500 52° Northeast 284 327 4,800 -1,620 Descending Indianapolis TRACON
02:40PM 39.8667 -86.1500 90° East 258 297 3,200 -900 Descending Indianapolis TRACON
02:41PM 39.8333 -86.1500 180° South 198 228 3,000 -360 Descending Indianapolis TRACON
02:42PM 39.8000 -86.2000 229° Southwest 155 178 2,600 -600 Descending Indianapolis TRACON
02:43PM 39.7667 -86.2333 218° Southwest 151 174 1,900 -780 Descending Indianapolis TRACON